sensor_id;sensor_type;location;lat;lon;timestamp;temperature;humidity
17715;DHT22;8977;50.902;4.314;2024-02-26T00:01:57;11.20;99.90
17715;DHT22;8977;50.902;4.314;2024-02-26T00:04:24;11.20;99.90
17715;DHT22;8977;50.902;4.314;2024-02-26T00:06:51;11.20;99.90
17715;DHT22;8977;50.902;4.314;2024-02-26T00:09:20;11.20;99.90
17715;DHT22;8977;50.902;4.314;2024-02-26T00:11:46;11.20;99.90
17715;DHT22;8977;50.902;4.314;2024-02-26T00:14:13;11.20;99.90
17715;DHT22;8977;50.902;4.314;2024-02-26T00:16:40;11.20;99.90
17715;DHT22;8977;50.902;4.314;2024-02-26T00:19:09;11.20;99.90
17715;DHT22;8977;50.902;4.314;2024-02-26T00:21:39;11.20;99.90
17715;DHT22;8977;50.902;4.314;2024-02-26T00:24:06;11.10;99.90
17715;DHT22;8977;50.902;4.314;2024-02-26T00:26:33;11.10;99.90
17715;DHT22;8977;50.902;4.314;2024-02-26T00:29:00;11.20;99.90
17715;DHT22;8977;50.902;4.314;2024-02-26T00:31:27;11.10;99.90
17715;DHT22;8977;50.902;4.314;2024-02-26T00:33:54;11.10;99.90
17715;DHT22;8977;50.902;4.314;2024-02-26T00:36:22;11.10;99.90
17715;DHT22;8977;50.902;4.314;2024-02-26T00:38:49;11.10;99.90
17715;DHT22;8977;50.902;4.314;2024-02-26T00:41:17;11.10;99.90
17715;DHT22;8977;50.902;4.314;2024-02-26T00:43:44;11.10;99.90
17715;DHT22;8977;50.902;4.314;2024-02-26T00:46:11;11.10;99.90
17715;DHT22;8977;50.902;4.314;2024-02-26T00:48:38;11.10;99.90
17715;DHT22;8977;50.902;4.314;2024-02-26T00:51:05;11.10;99.90
17715;DHT22;8977;50.902;4.314;2024-02-26T00:53:34;11.10;99.90
17715;DHT22;8977;50.902;4.314;2024-02-26T00:56:01;11.00;99.90
17715;DHT22;8977;50.902;4.314;2024-02-26T00:58:28;11.00;99.90
17715;DHT22;8977;50.902;4.314;2024-02-26T01:00:55;11.00;99.90
17715;DHT22;8977;50.902;4.314;2024-02-26T01:03:22;11.10;99.90
17715;DHT22;8977;50.902;4.314;2024-02-26T01:05:49;11.00;99.90
17715;DHT22;8977;50.902;4.314;2024-02-26T01:08:15;11.00;99.90
17715;DHT22;8977;50.902;4.314;2024-02-26T01:10:44;11.00;99.90
17715;DHT22;8977;50.902;4.314;2024-02-26T01:13:12;11.00;99.90
17715;DHT22;8977;50.902;4.314;2024-02-26T01:15:38;11.00;99.90
17715;DHT22;8977;50.902;4.314;2024-02-26T01:18:05;10.90;99.90
17715;DHT22;8977;50.902;4.314;2024-02-26T01:20:32;11.00;99.90
17715;DHT22;8977;50.902;4.314;2024-02-26T01:22:59;11.00;99.90
17715;DHT22;8977;50.902;4.314;2024-02-26T01:25:26;11.00;99.90
17715;DHT22;8977;50.902;4.314;2024-02-26T01:27:55;10.90;99.90
17715;DHT22;8977;50.902;4.314;2024-02-26T01:30:22;11.00;99.90
17715;DHT22;8977;50.902;4.314;2024-02-26T01:32:49;11.00;99.90
17715;DHT22;8977;50.902;4.314;2024-02-26T01:35:16;11.00;99.90
17715;DHT22;8977;50.902;4.314;2024-02-26T01:37:43;10.90;99.90
17715;DHT22;8977;50.902;4.314;2024-02-26T01:40:10;10.90;99.90
17715;DHT22;8977;50.902;4.314;2024-02-26T01:42:38;10.90;99.90
17715;DHT22;8977;50.902;4.314;2024-02-26T01:45:09;10.90;99.90
17715;DHT22;8977;50.902;4.314;2024-02-26T01:47:40;10.90;99.90
17715;DHT22;8977;50.902;4.314;2024-02-26T01:50:08;10.90;99.90
17715;DHT22;8977;50.902;4.314;2024-02-26T01:52:35;10.80;99.90
17715;DHT22;8977;50.902;4.314;2024-02-26T01:55:02;10.80;99.90
17715;DHT22;8977;50.902;4.314;2024-02-26T01:57:29;10.70;99.90
17715;DHT22;8977;50.902;4.314;2024-02-26T01:59:56;10.80;99.90
17715;DHT22;8977;50.902;4.314;2024-02-26T02:02:25;10.80;99.90
17715;DHT22;8977;50.902;4.314;2024-02-26T02:04:52;10.80;99.90
17715;DHT22;8977;50.902;4.314;2024-02-26T02:07:20;10.80;99.90
17715;DHT22;8977;50.902;4.314;2024-02-26T02:09:48;10.80;99.90
17715;DHT22;8977;50.902;4.314;2024-02-26T02:12:15;10.80;99.90
17715;DHT22;8977;50.902;4.314;2024-02-26T02:14:42;10.80;99.90
17715;DHT22;8977;50.902;4.314;2024-02-26T02:17:09;10.70;99.90
17715;DHT22;8977;50.902;4.314;2024-02-26T02:19:37;10.60;99.90
17715;DHT22;8977;50.902;4.314;2024-02-26T02:22:06;10.60;99.90
17715;DHT22;8977;50.902;4.314;2024-02-26T02:24:33;10.60;99.90
17715;DHT22;8977;50.902;4.314;2024-02-26T02:26:59;10.70;99.90
17715;DHT22;8977;50.902;4.314;2024-02-26T02:29:27;10.70;99.90
17715;DHT22;8977;50.902;4.314;2024-02-26T02:31:54;10.70;99.90
17715;DHT22;8977;50.902;4.314;2024-02-26T02:34:22;10.70;99.90
17715;DHT22;8977;50.902;4.314;2024-02-26T02:36:51;10.70;99.90
17715;DHT22;8977;50.902;4.314;2024-02-26T02:39:19;10.70;99.90
17715;DHT22;8977;50.902;4.314;2024-02-26T02:41:47;10.70;99.90
17715;DHT22;8977;50.902;4.314;2024-02-26T02:44:14;10.80;99.90
17715;DHT22;8977;50.902;4.314;2024-02-26T02:46:40;10.80;99.90
17715;DHT22;8977;50.902;4.314;2024-02-26T02:49:08;10.60;99.90
17715;DHT22;8977;50.902;4.314;2024-02-26T02:51:36;10.60;99.90
17715;DHT22;8977;50.902;4.314;2024-02-26T02:54:03;10.70;99.90
17715;DHT22;8977;50.902;4.314;2024-02-26T02:56:31;10.70;99.90
17715;DHT22;8977;50.902;4.314;2024-02-26T02:58:58;10.60;99.90
17715;DHT22;8977;50.902;4.314;2024-02-26T03:01:25;10.60;99.90
17715;DHT22;8977;50.902;4.314;2024-02-26T03:03:52;10.60;99.90
17715;DHT22;8977;50.902;4.314;2024-02-26T03:06:19;10.60;99.90
17715;DHT22;8977;50.902;4.314;2024-02-26T03:08:46;10.60;99.90
17715;DHT22;8977;50.902;4.314;2024-02-26T03:11:14;10.60;99.90
17715;DHT22;8977;50.902;4.314;2024-02-26T03:13:42;10.60;99.90
17715;DHT22;8977;50.902;4.314;2024-02-26T03:16:09;10.60;99.90
17715;DHT22;8977;50.902;4.314;2024-02-26T03:18:38;10.60;99.90
17715;DHT22;8977;50.902;4.314;2024-02-26T03:21:05;10.70;99.90
17715;DHT22;8977;50.902;4.314;2024-02-26T03:23:32;10.70;99.90
17715;DHT22;8977;50.902;4.314;2024-02-26T03:26:02;10.70;99.90
17715;DHT22;8977;50.902;4.314;2024-02-26T03:28:29;10.60;99.90
17715;DHT22;8977;50.902;4.314;2024-02-26T03:31:00;10.70;99.90
17715;DHT22;8977;50.902;4.314;2024-02-26T03:33:27;10.60;99.90
17715;DHT22;8977;50.902;4.314;2024-02-26T03:35:54;10.60;99.90
17715;DHT22;8977;50.902;4.314;2024-02-26T03:38:21;10.60;99.90
17715;DHT22;8977;50.902;4.314;2024-02-26T03:40:48;10.60;99.90
17715;DHT22;8977;50.902;4.314;2024-02-26T03:43:15;10.60;99.90
17715;DHT22;8977;50.902;4.314;2024-02-26T03:45:42;10.60;99.90
17715;DHT22;8977;50.902;4.314;2024-02-26T03:48:10;10.60;99.90
17715;DHT22;8977;50.902;4.314;2024-02-26T03:50:37;10.60;99.90
17715;DHT22;8977;50.902;4.314;2024-02-26T03:53:04;10.60;99.90
17715;DHT22;8977;50.902;4.314;2024-02-26T03:55:31;10.60;99.90
17715;DHT22;8977;50.902;4.314;2024-02-26T03:57:58;10.60;99.90
17715;DHT22;8977;50.902;4.314;2024-02-26T04:00:25;10.70;99.90
17715;DHT22;8977;50.902;4.314;2024-02-26T04:02:54;10.60;99.90
17715;DHT22;8977;50.902;4.314;2024-02-26T04:05:23;10.70;99.90
17715;DHT22;8977;50.902;4.314;2024-02-26T04:07:50;10.60;99.90
17715;DHT22;8977;50.902;4.314;2024-02-26T04:10:17;10.60;99.90
17715;DHT22;8977;50.902;4.314;2024-02-26T04:12:44;10.60;99.90
17715;DHT22;8977;50.902;4.314;2024-02-26T04:15:11;10.60;99.90
17715;DHT22;8977;50.902;4.314;2024-02-26T04:17:38;10.50;99.90
17715;DHT22;8977;50.902;4.314;2024-02-26T04:20:06;10.50;99.90
17715;DHT22;8977;50.902;4.314;2024-02-26T04:22:35;10.50;99.90
17715;DHT22;8977;50.902;4.314;2024-02-26T04:25:01;10.50;99.90
17715;DHT22;8977;50.902;4.314;2024-02-26T04:27:28;10.50;99.90
17715;DHT22;8977;50.902;4.314;2024-02-26T04:29:55;10.50;99.90
17715;DHT22;8977;50.902;4.314;2024-02-26T04:32:22;10.40;99.90
17715;DHT22;8977;50.902;4.314;2024-02-26T04:34:49;10.50;99.90
17715;DHT22;8977;50.902;4.314;2024-02-26T04:37:16;10.50;99.90
17715;DHT22;8977;50.902;4.314;2024-02-26T04:39:44;10.50;99.90
17715;DHT22;8977;50.902;4.314;2024-02-26T04:42:11;10.50;99.90
17715;DHT22;8977;50.902;4.314;2024-02-26T04:44:38;10.50;99.90
17715;DHT22;8977;50.902;4.314;2024-02-26T04:47:05;10.50;99.90
17715;DHT22;8977;50.902;4.314;2024-02-26T04:49:33;10.50;99.90
17715;DHT22;8977;50.902;4.314;2024-02-26T04:52:00;10.50;99.90
17715;DHT22;8977;50.902;4.314;2024-02-26T04:54:27;10.50;99.90
17715;DHT22;8977;50.902;4.314;2024-02-26T04:56:55;10.60;99.90
17715;DHT22;8977;50.902;4.314;2024-02-26T04:59:22;10.50;99.90
17715;DHT22;8977;50.902;4.314;2024-02-26T05:01:49;10.50;99.90
17715;DHT22;8977;50.902;4.314;2024-02-26T05:04:17;10.50;99.90
17715;DHT22;8977;50.902;4.314;2024-02-26T05:06:44;10.50;99.90
17715;DHT22;8977;50.902;4.314;2024-02-26T05:09:11;10.50;99.90
17715;DHT22;8977;50.902;4.314;2024-02-26T05:11:38;10.60;99.90
17715;DHT22;8977;50.902;4.314;2024-02-26T05:14:06;10.50;99.90
17715;DHT22;8977;50.902;4.314;2024-02-26T05:16:33;10.50;99.90
17715;DHT22;8977;50.902;4.314;2024-02-26T05:19:00;10.50;99.90
17715;DHT22;8977;50.902;4.314;2024-02-26T05:21:28;10.50;99.90
17715;DHT22;8977;50.902;4.314;2024-02-26T05:23:55;10.50;99.90
17715;DHT22;8977;50.902;4.314;2024-02-26T05:26:22;10.50;99.90
17715;DHT22;8977;50.902;4.314;2024-02-26T05:28:49;10.50;99.90
17715;DHT22;8977;50.902;4.314;2024-02-26T05:31:17;10.50;99.90
17715;DHT22;8977;50.902;4.314;2024-02-26T05:33:44;10.50;99.90
17715;DHT22;8977;50.902;4.314;2024-02-26T05:36:18;10.50;99.90
17715;DHT22;8977;50.902;4.314;2024-02-26T05:38:45;10.50;99.90
17715;DHT22;8977;50.902;4.314;2024-02-26T05:41:12;10.50;99.90
17715;DHT22;8977;50.902;4.314;2024-02-26T05:43:39;10.50;99.90
17715;DHT22;8977;50.902;4.314;2024-02-26T05:46:06;10.50;99.90
17715;DHT22;8977;50.902;4.314;2024-02-26T05:48:34;10.50;99.90
17715;DHT22;8977;50.902;4.314;2024-02-26T05:51:01;10.50;99.90
17715;DHT22;8977;50.902;4.314;2024-02-26T05:53:28;10.50;99.90
17715;DHT22;8977;50.902;4.314;2024-02-26T05:55:55;10.50;99.90
17715;DHT22;8977;50.902;4.314;2024-02-26T05:58:22;10.50;99.90
17715;DHT22;8977;50.902;4.314;2024-02-26T06:00:49;10.50;99.90
17715;DHT22;8977;50.902;4.314;2024-02-26T06:03:16;10.50;99.90
17715;DHT22;8977;50.902;4.314;2024-02-26T06:05:44;10.50;99.90
17715;DHT22;8977;50.902;4.314;2024-02-26T06:08:11;10.40;99.90
17715;DHT22;8977;50.902;4.314;2024-02-26T06:10:38;10.50;99.90
17715;DHT22;8977;50.902;4.314;2024-02-26T06:13:05;10.50;99.90
17715;DHT22;8977;50.902;4.314;2024-02-26T06:15:32;10.40;99.90
17715;DHT22;8977;50.902;4.314;2024-02-26T06:17:59;10.40;99.90
17715;DHT22;8977;50.902;4.314;2024-02-26T06:20:26;10.40;99.90
17715;DHT22;8977;50.902;4.314;2024-02-26T06:22:54;10.50;99.90
17715;DHT22;8977;50.902;4.314;2024-02-26T06:25:21;10.50;99.90
17715;DHT22;8977;50.902;4.314;2024-02-26T06:27:48;10.50;99.90
17715;DHT22;8977;50.902;4.314;2024-02-26T06:30:15;10.50;99.90
17715;DHT22;8977;50.902;4.314;2024-02-26T06:32:41;10.50;99.90
17715;DHT22;8977;50.902;4.314;2024-02-26T06:35:09;10.50;99.90
17715;DHT22;8977;50.902;4.314;2024-02-26T06:37:37;10.50;99.90
17715;DHT22;8977;50.902;4.314;2024-02-26T06:40:06;10.50;99.90
17715;DHT22;8977;50.902;4.314;2024-02-26T06:42:33;10.50;99.90
17715;DHT22;8977;50.902;4.314;2024-02-26T06:45:01;10.40;99.90
17715;DHT22;8977;50.902;4.314;2024-02-26T06:47:29;10.40;99.90
17715;DHT22;8977;50.902;4.314;2024-02-26T06:49:56;10.40;99.90
17715;DHT22;8977;50.902;4.314;2024-02-26T06:52:23;10.40;99.90
17715;DHT22;8977;50.902;4.314;2024-02-26T06:54:51;10.30;99.90
17715;DHT22;8977;50.902;4.314;2024-02-26T06:57:19;10.30;99.90
17715;DHT22;8977;50.902;4.314;2024-02-26T06:59:46;10.40;99.90
17715;DHT22;8977;50.902;4.314;2024-02-26T07:02:13;10.50;99.90
17715;DHT22;8977;50.902;4.314;2024-02-26T07:04:41;10.40;99.90
17715;DHT22;8977;50.902;4.314;2024-02-26T07:07:08;10.40;99.90
17715;DHT22;8977;50.902;4.314;2024-02-26T07:09:36;10.40;99.90
17715;DHT22;8977;50.902;4.314;2024-02-26T07:12:03;10.40;99.90
17715;DHT22;8977;50.902;4.314;2024-02-26T07:14:31;10.40;99.90
17715;DHT22;8977;50.902;4.314;2024-02-26T07:16:59;10.40;99.90
17715;DHT22;8977;50.902;4.314;2024-02-26T07:19:26;10.40;99.90
17715;DHT22;8977;50.902;4.314;2024-02-26T07:21:53;10.30;99.90
17715;DHT22;8977;50.902;4.314;2024-02-26T07:24:19;10.30;99.90
17715;DHT22;8977;50.902;4.314;2024-02-26T07:26:46;10.30;99.90
17715;DHT22;8977;50.902;4.314;2024-02-26T07:29:13;10.30;99.90
17715;DHT22;8977;50.902;4.314;2024-02-26T07:31:41;10.30;99.90
17715;DHT22;8977;50.902;4.314;2024-02-26T07:34:08;10.30;99.90
17715;DHT22;8977;50.902;4.314;2024-02-26T07:36:35;10.30;99.90
17715;DHT22;8977;50.902;4.314;2024-02-26T07:39:02;10.30;99.90
17715;DHT22;8977;50.902;4.314;2024-02-26T07:41:28;10.30;99.90
17715;DHT22;8977;50.902;4.314;2024-02-26T07:43:55;10.30;99.90
17715;DHT22;8977;50.902;4.314;2024-02-26T07:46:22;10.30;99.90
17715;DHT22;8977;50.902;4.314;2024-02-26T07:48:50;10.30;99.90
17715;DHT22;8977;50.902;4.314;2024-02-26T07:51:17;10.30;99.90
17715;DHT22;8977;50.902;4.314;2024-02-26T07:53:44;10.40;99.90
17715;DHT22;8977;50.902;4.314;2024-02-26T07:56:11;10.30;99.90
17715;DHT22;8977;50.902;4.314;2024-02-26T07:58:38;10.30;99.90
17715;DHT22;8977;50.902;4.314;2024-02-26T08:01:05;10.30;99.90
17715;DHT22;8977;50.902;4.314;2024-02-26T08:03:32;10.30;99.90
17715;DHT22;8977;50.902;4.314;2024-02-26T08:06:01;10.30;99.90
17715;DHT22;8977;50.902;4.314;2024-02-26T08:08:28;10.30;99.90
17715;DHT22;8977;50.902;4.314;2024-02-26T08:10:54;10.30;99.90
17715;DHT22;8977;50.902;4.314;2024-02-26T08:13:21;10.30;99.90
17715;DHT22;8977;50.902;4.314;2024-02-26T08:15:48;10.30;99.90
17715;DHT22;8977;50.902;4.314;2024-02-26T08:18:15;10.20;99.90
17715;DHT22;8977;50.902;4.314;2024-02-26T08:20:42;10.20;99.90
17715;DHT22;8977;50.902;4.314;2024-02-26T08:23:10;10.20;99.90
17715;DHT22;8977;50.902;4.314;2024-02-26T08:25:37;10.20;99.90
17715;DHT22;8977;50.902;4.314;2024-02-26T08:28:04;10.30;99.90
17715;DHT22;8977;50.902;4.314;2024-02-26T08:30:31;10.30;99.90
17715;DHT22;8977;50.902;4.314;2024-02-26T08:32:59;10.30;99.90
17715;DHT22;8977;50.902;4.314;2024-02-26T08:35:26;10.30;99.90
17715;DHT22;8977;50.902;4.314;2024-02-26T08:37:53;10.30;99.90
17715;DHT22;8977;50.902;4.314;2024-02-26T08:40:21;10.30;99.90
17715;DHT22;8977;50.902;4.314;2024-02-26T08:42:48;10.30;99.90
17715;DHT22;8977;50.902;4.314;2024-02-26T08:45:15;10.30;99.90
17715;DHT22;8977;50.902;4.314;2024-02-26T08:47:44;10.30;99.90
17715;DHT22;8977;50.902;4.314;2024-02-26T08:50:11;10.20;99.90
17715;DHT22;8977;50.902;4.314;2024-02-26T08:52:38;10.30;99.90
17715;DHT22;8977;50.902;4.314;2024-02-26T08:55:06;10.20;99.90
17715;DHT22;8977;50.902;4.314;2024-02-26T08:57:35;10.20;99.90
17715;DHT22;8977;50.902;4.314;2024-02-26T09:00:05;10.30;99.90
17715;DHT22;8977;50.902;4.314;2024-02-26T09:02:32;10.30;99.90
17715;DHT22;8977;50.902;4.314;2024-02-26T09:04:59;10.30;99.90
17715;DHT22;8977;50.902;4.314;2024-02-26T09:07:26;10.30;99.90
17715;DHT22;8977;50.902;4.314;2024-02-26T09:09:53;10.30;99.90
17715;DHT22;8977;50.902;4.314;2024-02-26T09:12:20;10.30;99.90
17715;DHT22;8977;50.902;4.314;2024-02-26T09:14:48;10.20;99.90
17715;DHT22;8977;50.902;4.314;2024-02-26T09:17:15;10.20;99.90
17715;DHT22;8977;50.902;4.314;2024-02-26T09:19:42;10.30;99.90
17715;DHT22;8977;50.902;4.314;2024-02-26T09:22:09;10.30;99.90
17715;DHT22;8977;50.902;4.314;2024-02-26T09:24:36;10.30;99.90
17715;DHT22;8977;50.902;4.314;2024-02-26T09:27:04;10.30;99.90
17715;DHT22;8977;50.902;4.314;2024-02-26T09:29:30;10.30;99.90
17715;DHT22;8977;50.902;4.314;2024-02-26T09:31:59;10.20;99.90
17715;DHT22;8977;50.902;4.314;2024-02-26T09:34:26;10.20;99.90
17715;DHT22;8977;50.902;4.314;2024-02-26T09:36:53;10.20;99.90
17715;DHT22;8977;50.902;4.314;2024-02-26T09:39:19;10.30;99.90
17715;DHT22;8977;50.902;4.314;2024-02-26T09:41:47;10.20;99.90
17715;DHT22;8977;50.902;4.314;2024-02-26T09:44:18;10.20;99.90
17715;DHT22;8977;50.902;4.314;2024-02-26T09:46:47;10.30;99.90
17715;DHT22;8977;50.902;4.314;2024-02-26T09:49:16;10.20;99.90
17715;DHT22;8977;50.902;4.314;2024-02-26T09:51:43;10.20;99.90
17715;DHT22;8977;50.902;4.314;2024-02-26T09:54:10;10.20;99.90
17715;DHT22;8977;50.902;4.314;2024-02-26T09:56:39;10.20;99.90
17715;DHT22;8977;50.902;4.314;2024-02-26T09:59:10;10.20;99.90
17715;DHT22;8977;50.902;4.314;2024-02-26T10:01:39;10.20;99.90
17715;DHT22;8977;50.902;4.314;2024-02-26T10:04:09;10.20;99.90
17715;DHT22;8977;50.902;4.314;2024-02-26T10:06:38;10.20;99.90
17715;DHT22;8977;50.902;4.314;2024-02-26T10:09:05;10.20;99.90
17715;DHT22;8977;50.902;4.314;2024-02-26T10:11:35;10.20;99.90
17715;DHT22;8977;50.902;4.314;2024-02-26T10:14:04;10.10;99.90
17715;DHT22;8977;50.902;4.314;2024-02-26T10:16:32;10.20;99.90
17715;DHT22;8977;50.902;4.314;2024-02-26T10:19:00;10.20;99.90
17715;DHT22;8977;50.902;4.314;2024-02-26T10:21:27;10.20;99.90
17715;DHT22;8977;50.902;4.314;2024-02-26T10:23:55;10.20;99.90
17715;DHT22;8977;50.902;4.314;2024-02-26T10:26:22;10.20;99.90
17715;DHT22;8977;50.902;4.314;2024-02-26T10:28:49;10.20;99.90
17715;DHT22;8977;50.902;4.314;2024-02-26T10:31:16;10.20;99.90
17715;DHT22;8977;50.902;4.314;2024-02-26T10:33:43;10.30;99.90
17715;DHT22;8977;50.902;4.314;2024-02-26T10:36:11;10.30;99.90
17715;DHT22;8977;50.902;4.314;2024-02-26T10:38:38;10.30;99.90
17715;DHT22;8977;50.902;4.314;2024-02-26T10:41:07;10.20;99.90
17715;DHT22;8977;50.902;4.314;2024-02-26T10:43:34;10.20;99.90
17715;DHT22;8977;50.902;4.314;2024-02-26T10:46:01;10.20;99.90
17715;DHT22;8977;50.902;4.314;2024-02-26T10:48:29;10.30;99.90
17715;DHT22;8977;50.902;4.314;2024-02-26T10:50:56;10.20;99.90
17715;DHT22;8977;50.902;4.314;2024-02-26T10:53:26;10.20;99.90
17715;DHT22;8977;50.902;4.314;2024-02-26T10:55:57;10.20;99.90
17715;DHT22;8977;50.902;4.314;2024-02-26T10:58:27;10.20;99.90
17715;DHT22;8977;50.902;4.314;2024-02-26T11:00:56;10.20;99.90
17715;DHT22;8977;50.902;4.314;2024-02-26T11:03:24;10.20;99.90
17715;DHT22;8977;50.902;4.314;2024-02-26T11:05:51;10.20;99.90
17715;DHT22;8977;50.902;4.314;2024-02-26T11:08:19;10.20;99.90
17715;DHT22;8977;50.902;4.314;2024-02-26T11:10:48;10.20;99.90
17715;DHT22;8977;50.902;4.314;2024-02-26T11:13:16;10.20;99.90
17715;DHT22;8977;50.902;4.314;2024-02-26T11:15:46;10.20;99.90
17715;DHT22;8977;50.902;4.314;2024-02-26T11:18:15;10.20;99.90
17715;DHT22;8977;50.902;4.314;2024-02-26T11:20:42;10.10;99.90
17715;DHT22;8977;50.902;4.314;2024-02-26T11:23:10;10.20;99.90
17715;DHT22;8977;50.902;4.314;2024-02-26T11:25:37;10.20;99.90
17715;DHT22;8977;50.902;4.314;2024-02-26T11:28:07;10.20;99.90
17715;DHT22;8977;50.902;4.314;2024-02-26T11:30:38;10.20;99.90
17715;DHT22;8977;50.902;4.314;2024-02-26T11:33:08;10.20;99.90
17715;DHT22;8977;50.902;4.314;2024-02-26T11:35:38;10.20;99.90
17715;DHT22;8977;50.902;4.314;2024-02-26T11:38:06;10.20;99.90
17715;DHT22;8977;50.902;4.314;2024-02-26T11:40:33;10.20;99.90
17715;DHT22;8977;50.902;4.314;2024-02-26T11:43:05;10.10;99.90
17715;DHT22;8977;50.902;4.314;2024-02-26T11:45:50;10.10;99.90
17715;DHT22;8977;50.902;4.314;2024-02-26T11:48:23;10.20;99.90
17715;DHT22;8977;50.902;4.314;2024-02-26T11:50:53;10.10;99.90
17715;DHT22;8977;50.902;4.314;2024-02-26T11:53:23;10.10;99.90
17715;DHT22;8977;50.902;4.314;2024-02-26T11:56:13;10.10;99.90
17715;DHT22;8977;50.902;4.314;2024-02-26T11:58:40;10.00;99.90
17715;DHT22;8977;50.902;4.314;2024-02-26T12:01:41;10.00;99.90
17715;DHT22;8977;50.902;4.314;2024-02-26T12:04:12;10.00;99.90
17715;DHT22;8977;50.902;4.314;2024-02-26T12:06:45;10.00;99.90
17715;DHT22;8977;50.902;4.314;2024-02-26T12:09:12;10.10;99.90
17715;DHT22;8977;50.902;4.314;2024-02-26T12:11:40;10.00;99.90
17715;DHT22;8977;50.902;4.314;2024-02-26T12:14:08;10.00;99.90
17715;DHT22;8977;50.902;4.314;2024-02-26T12:16:36;10.00;99.90
17715;DHT22;8977;50.902;4.314;2024-02-26T12:19:04;10.10;99.90
17715;DHT22;8977;50.902;4.314;2024-02-26T12:21:34;10.10;99.90
17715;DHT22;8977;50.902;4.314;2024-02-26T12:24:11;10.10;99.90
17715;DHT22;8977;50.902;4.314;2024-02-26T12:26:39;10.10;99.90
17715;DHT22;8977;50.902;4.314;2024-02-26T12:29:06;10.10;99.90
17715;DHT22;8977;50.902;4.314;2024-02-26T12:31:33;10.10;99.90
17715;DHT22;8977;50.902;4.314;2024-02-26T12:34:02;10.10;99.90
17715;DHT22;8977;50.902;4.314;2024-02-26T12:36:30;10.10;99.90
17715;DHT22;8977;50.902;4.314;2024-02-26T12:38:57;10.00;99.90
17715;DHT22;8977;50.902;4.314;2024-02-26T12:41:26;10.00;99.90
17715;DHT22;8977;50.902;4.314;2024-02-26T12:43:54;10.00;99.90
17715;DHT22;8977;50.902;4.314;2024-02-26T12:46:21;10.00;99.90
17715;DHT22;8977;50.902;4.314;2024-02-26T12:48:48;9.90;99.90
17715;DHT22;8977;50.902;4.314;2024-02-26T12:51:16;9.90;99.90
17715;DHT22;8977;50.902;4.314;2024-02-26T12:53:44;9.90;99.90
17715;DHT22;8977;50.902;4.314;2024-02-26T12:56:12;9.90;99.90
17715;DHT22;8977;50.902;4.314;2024-02-26T12:58:40;9.90;99.90
17715;DHT22;8977;50.902;4.314;2024-02-26T13:01:07;9.90;99.90
17715;DHT22;8977;50.902;4.314;2024-02-26T13:03:40;9.80;99.90
17715;DHT22;8977;50.902;4.314;2024-02-26T13:06:08;9.80;99.90
17715;DHT22;8977;50.902;4.314;2024-02-26T13:08:35;9.90;99.90
17715;DHT22;8977;50.902;4.314;2024-02-26T13:11:02;9.90;99.90
17715;DHT22;8977;50.902;4.314;2024-02-26T13:13:30;9.90;99.90
17715;DHT22;8977;50.902;4.314;2024-02-26T13:16:04;9.90;99.90
17715;DHT22;8977;50.902;4.314;2024-02-26T13:18:34;9.80;99.90
17715;DHT22;8977;50.902;4.314;2024-02-26T13:21:09;9.80;99.90
17715;DHT22;8977;50.902;4.314;2024-02-26T13:23:37;9.90;99.90
17715;DHT22;8977;50.902;4.314;2024-02-26T13:26:04;9.80;99.90
17715;DHT22;8977;50.902;4.314;2024-02-26T13:28:33;9.90;99.90
17715;DHT22;8977;50.902;4.314;2024-02-26T13:31:00;9.80;99.90
17715;DHT22;8977;50.902;4.314;2024-02-26T13:33:29;9.70;99.90
17715;DHT22;8977;50.902;4.314;2024-02-26T13:35:57;9.80;99.90
17715;DHT22;8977;50.902;4.314;2024-02-26T13:38:24;9.80;99.90
17715;DHT22;8977;50.902;4.314;2024-02-26T13:40:52;9.70;99.90
17715;DHT22;8977;50.902;4.314;2024-02-26T13:43:19;9.80;99.90
17715;DHT22;8977;50.902;4.314;2024-02-26T13:45:47;9.80;99.90
17715;DHT22;8977;50.902;4.314;2024-02-26T13:48:14;9.80;99.90
17715;DHT22;8977;50.902;4.314;2024-02-26T13:50:42;9.70;99.90
17715;DHT22;8977;50.902;4.314;2024-02-26T13:53:11;9.80;99.90
17715;DHT22;8977;50.902;4.314;2024-02-26T13:55:39;9.80;99.90
17715;DHT22;8977;50.902;4.314;2024-02-26T13:58:08;9.80;99.90
17715;DHT22;8977;50.902;4.314;2024-02-26T14:00:35;9.80;99.90
17715;DHT22;8977;50.902;4.314;2024-02-26T14:03:03;9.90;99.90
17715;DHT22;8977;50.902;4.314;2024-02-26T14:05:31;9.80;99.90
17715;DHT22;8977;50.902;4.314;2024-02-26T14:07:58;9.80;99.90
17715;DHT22;8977;50.902;4.314;2024-02-26T14:10:25;9.90;99.90
17715;DHT22;8977;50.902;4.314;2024-02-26T14:12:52;9.90;99.90
17715;DHT22;8977;50.902;4.314;2024-02-26T14:15:18;9.90;99.90
17715;DHT22;8977;50.902;4.314;2024-02-26T14:17:45;9.90;99.90
17715;DHT22;8977;50.902;4.314;2024-02-26T14:20:20;10.00;99.90
17715;DHT22;8977;50.902;4.314;2024-02-26T14:22:47;9.90;99.90
17715;DHT22;8977;50.902;4.314;2024-02-26T14:25:14;9.90;99.90
17715;DHT22;8977;50.902;4.314;2024-02-26T14:27:41;9.80;99.90
17715;DHT22;8977;50.902;4.314;2024-02-26T14:30:08;9.80;99.90
17715;DHT22;8977;50.902;4.314;2024-02-26T14:32:35;9.70;99.90
17715;DHT22;8977;50.902;4.314;2024-02-26T14:35:04;9.70;99.90
17715;DHT22;8977;50.902;4.314;2024-02-26T14:37:33;9.70;99.90
17715;DHT22;8977;50.902;4.314;2024-02-26T14:40:00;9.80;99.90
17715;DHT22;8977;50.902;4.314;2024-02-26T14:42:28;9.60;99.90
17715;DHT22;8977;50.902;4.314;2024-02-26T14:44:54;9.60;99.90
17715;DHT22;8977;50.902;4.314;2024-02-26T14:47:22;9.60;99.90
17715;DHT22;8977;50.902;4.314;2024-02-26T14:49:48;9.70;99.90
17715;DHT22;8977;50.902;4.314;2024-02-26T14:52:17;9.70;99.90
17715;DHT22;8977;50.902;4.314;2024-02-26T14:54:45;9.70;99.90
17715;DHT22;8977;50.902;4.314;2024-02-26T14:57:12;9.60;99.90
17715;DHT22;8977;50.902;4.314;2024-02-26T14:59:39;9.60;99.90
17715;DHT22;8977;50.902;4.314;2024-02-26T15:02:06;9.70;99.90
17715;DHT22;8977;50.902;4.314;2024-02-26T15:04:35;9.80;99.90
17715;DHT22;8977;50.902;4.314;2024-02-26T15:07:02;9.70;99.90
17715;DHT22;8977;50.902;4.314;2024-02-26T15:09:29;9.70;99.90
17715;DHT22;8977;50.902;4.314;2024-02-26T15:11:57;9.70;99.90
17715;DHT22;8977;50.902;4.314;2024-02-26T15:14:24;9.80;99.90
17715;DHT22;8977;50.902;4.314;2024-02-26T15:16:51;9.70;99.90
17715;DHT22;8977;50.902;4.314;2024-02-26T15:19:18;9.70;99.90
17715;DHT22;8977;50.902;4.314;2024-02-26T15:21:45;9.70;99.90
17715;DHT22;8977;50.902;4.314;2024-02-26T15:24:12;9.80;99.90
17715;DHT22;8977;50.902;4.314;2024-02-26T15:26:41;9.80;99.90
17715;DHT22;8977;50.902;4.314;2024-02-26T15:29:10;9.80;99.90
17715;DHT22;8977;50.902;4.314;2024-02-26T15:31:37;9.90;99.90
17715;DHT22;8977;50.902;4.314;2024-02-26T15:34:04;9.90;99.90
17715;DHT22;8977;50.902;4.314;2024-02-26T15:36:31;9.80;99.90
17715;DHT22;8977;50.902;4.314;2024-02-26T15:38:58;9.80;99.90
17715;DHT22;8977;50.902;4.314;2024-02-26T15:41:25;9.80;99.90
17715;DHT22;8977;50.902;4.314;2024-02-26T15:43:52;9.90;99.90
17715;DHT22;8977;50.902;4.314;2024-02-26T15:46:20;9.80;99.90
17715;DHT22;8977;50.902;4.314;2024-02-26T15:48:47;9.80;99.90
17715;DHT22;8977;50.902;4.314;2024-02-26T15:51:21;9.80;99.90
17715;DHT22;8977;50.902;4.314;2024-02-26T15:53:49;9.70;99.90